Time;durP1;ratioP1;P1;durP2;ratioP2;P2;SDS_P1;SDS_P2;PMS_P1;PMS_P2;Temp;Humidity;BMP_temperature;BMP_pressure;BME280_temperature;BME280_humidity;BME280_pressure;Samples;Min_cycle;Max_cycle;Signal;HPM_P1;HPM_P2
2022/05/03 00:00:50;;;;;;;;;;;19.20;61.40;;;;;;5051955;28;1333;-73
2022/05/03 00:03:22;;;;;;;;;;;19.20;61.40;;;;;;5051610;28;1910;-74
2022/05/03 00:06:01;;;;;;;;;;;19.20;61.40;;;;;;5051229;28;1330;-74
2022/05/03 00:08:27;;;;;;;;;;;19.20;61.50;;;;;;5051376;28;1048;-74
2022/05/03 00:11:12;;;;;;;;;;;19.20;61.50;;;;;;5034673;28;1405;-73
2022/05/03 00:13:46;;;;;;;;;;;19.20;61.50;;;;;;5041352;28;1351;-73
2022/05/03 00:16:12;;;;;;;;;;;19.20;61.60;;;;;;5044717;28;1095;-74
2022/05/03 00:18:37;;;;;;;;;;;19.20;61.60;;;;;;5051996;28;1138;-74
2022/05/03 00:21:03;;;;;;;;;;;19.20;61.60;;;;;;5050892;28;1353;-74
2022/05/03 00:23:28;;;;;;;;;;;19.10;61.60;;;;;;5044801;28;1951;-73
2022/05/03 00:25:54;;;;;;;;;;;19.10;61.60;;;;;;5027942;28;1289;-73
2022/05/03 00:28:19;;;;;;;;;;;19.20;61.70;;;;;;5050756;28;1241;-72
2022/05/03 00:30:45;;;;;;;;;;;19.20;61.70;;;;;;5033795;28;1313;-69
2022/05/03 00:33:10;;;;;;;;;;;19.10;61.70;;;;;;5051261;28;1370;-70
2022/05/03 00:35:36;;;;;;;;;;;19.10;61.70;;;;;;5050870;28;1481;-70
2022/05/03 00:38:01;;;;;;;;;;;19.10;61.70;;;;;;5043143;28;1334;-69
2022/05/03 00:40:27;;;;;;;;;;;19.10;61.70;;;;;;5052369;28;1385;-70
2022/05/03 00:42:57;;;;;;;;;;;19.10;61.70;;;;;;5033744;28;1936;-71
2022/05/03 00:45:27;;;;;;;;;;;19.10;61.80;;;;;;5034368;28;1413;-71
2022/05/03 00:47:53;;;;;;;;;;;19.10;61.80;;;;;;5050548;28;1091;-71
2022/05/03 00:50:37;;;;;;;;;;;19.10;61.80;;;;;;5053925;28;1323;-71
2022/05/03 00:53:18;;;;;;;;;;;19.10;61.80;;;;;;5055375;28;1401;-72
2022/05/03 00:56:01;;;;;;;;;;;19.10;61.80;;;;;;5056073;28;1099;-72
2022/05/03 00:58:32;;;;;;;;;;;19.10;61.90;;;;;;5055455;28;1249;-72
2022/05/03 01:01:04;;;;;;;;;;;19.10;61.90;;;;;;5054367;28;1347;-71
2022/05/03 01:03:38;;;;;;;;;;;19.10;62.00;;;;;;5054822;28;1898;-70
2022/05/03 01:06:03;;;;;;;;;;;19.10;62.00;;;;;;5054689;28;1294;-71
2022/05/03 01:08:33;;;;;;;;;;;19.10;62.00;;;;;;5054208;28;1311;-71
2022/05/03 01:11:02;;;;;;;;;;;19.10;62.00;;;;;;5086163;22;1894;-67
2022/05/03 01:13:33;;;;;;;;;;;19.10;62.10;;;;;;5067591;28;1143;-66
2022/05/03 01:16:03;;;;;;;;;;;19.10;62.00;;;;;;5085439;28;971;-67
2022/05/03 01:18:41;;;;;;;;;;;19.00;62.00;;;;;;5073970;28;1379;-67
2022/05/03 01:21:15;;;;;;;;;;;19.00;62.00;;;;;;5067622;28;1675;-67
2022/05/03 01:24:10;;;;;;;;;;;19.10;62.10;;;;;;5046656;28;1969;-67
2022/05/03 01:26:48;;;;;;;;;;;19.10;62.10;;;;;;5055180;28;1472;-66
2022/05/03 01:29:32;;;;;;;;;;;19.00;62.10;;;;;;5066727;28;1146;-69
2022/05/03 01:31:58;;;;;;;;;;;19.10;62.10;;;;;;5076057;28;1278;-67
2022/05/03 01:34:24;;;;;;;;;;;19.10;62.10;;;;;;5074673;28;1134;-68
2022/05/03 01:36:56;;;;;;;;;;;19.10;62.20;;;;;;5056474;28;1641;-67
2022/05/03 01:39:21;;;;;;;;;;;19.00;62.10;;;;;;5070169;28;1144;-68
2022/05/03 01:41:48;;;;;;;;;;;19.00;62.10;;;;;;5075600;28;2063;-67
2022/05/03 01:44:20;;;;;;;;;;;19.10;62.20;;;;;;5057833;28;1362;-67
2022/05/03 01:46:45;;;;;;;;;;;19.10;62.20;;;;;;5074552;28;1327;-67
2022/05/03 01:52:33;;;;;;;;;;;19.00;62.20;;;;;;5075683;28;1674;-66
2022/05/03 01:55:14;;;;;;;;;;;19.10;62.30;;;;;;5075859;28;1292;-67
2022/05/03 01:58:01;;;;;;;;;;;19.00;62.20;;;;;;5074108;28;1299;-66
2022/05/03 02:00:26;;;;;;;;;;;19.00;62.30;;;;;;5073337;28;1373;-66
2022/05/03 02:02:58;;;;;;;;;;;19.00;62.20;;;;;;5074152;28;1953;-67
2022/05/03 02:05:29;;;;;;;;;;;19.00;62.20;;;;;;5075322;28;1308;-68
2022/05/03 02:07:55;;;;;;;;;;;19.00;62.20;;;;;;5073932;28;1299;-68
2022/05/03 02:10:26;;;;;;;;;;;19.00;62.30;;;;;;5054541;28;1287;-68
2022/05/03 02:12:57;;;;;;;;;;;19.00;62.30;;;;;;5035445;28;1339;-68
2022/05/03 02:15:38;;;;;;;;;;;19.00;62.30;;;;;;5057698;28;1281;-66
2022/05/03 02:18:05;;;;;;;;;;;19.00;62.30;;;;;;5054841;28;1155;-66
2022/05/03 02:20:39;;;;;;;;;;;19.00;62.30;;;;;;5054892;28;1366;-67
2022/05/03 02:23:15;;;;;;;;;;;19.00;62.30;;;;;;5054848;28;1917;-67
2022/05/03 02:26:01;;;;;;;;;;;19.00;62.40;;;;;;5055000;28;1389;-67
2022/05/03 02:28:27;;;;;;;;;;;19.00;62.30;;;;;;5053570;28;1322;-67
2022/05/03 02:30:52;;;;;;;;;;;19.00;62.40;;;;;;5053549;28;1231;-67
2022/05/03 02:33:18;;;;;;;;;;;19.00;62.40;;;;;;5053757;28;1316;-67
2022/05/03 02:35:48;;;;;;;;;;;19.00;62.40;;;;;;5053217;28;1344;-67
2022/05/03 02:38:15;;;;;;;;;;;19.00;62.40;;;;;;5054528;28;1130;-69
2022/05/03 02:40:43;;;;;;;;;;;19.00;62.40;;;;;;5073373;28;1319;-69
2022/05/03 02:43:09;;;;;;;;;;;19.00;62.40;;;;;;5074016;28;1953;-68
2022/05/03 02:45:35;;;;;;;;;;;19.00;62.40;;;;;;5073491;28;1265;-69
2022/05/03 02:48:10;;;;;;;;;;;19.00;62.40;;;;;;5073274;28;1277;-68
2022/05/03 02:50:38;;;;;;;;;;;19.00;62.50;;;;;;5074362;28;1361;-67
2022/05/03 02:53:06;;;;;;;;;;;19.00;62.50;;;;;;5074554;28;1373;-68
2022/05/03 02:55:51;;;;;;;;;;;19.00;62.50;;;;;;5074380;28;1286;-68
2022/05/03 02:58:37;;;;;;;;;;;19.00;62.50;;;;;;5056184;28;1337;-68
2022/05/03 03:04:13;;;;;;;;;;;19.00;62.50;;;;;;5073224;28;1965;-68
2022/05/03 03:06:40;;;;;;;;;;;19.00;62.50;;;;;;5074095;28;1283;-68
2022/05/03 03:09:06;;;;;;;;;;;19.00;62.60;;;;;;5063748;28;1119;-69
2022/05/03 03:11:38;;;;;;;;;;;19.00;62.50;;;;;;5069191;28;1291;-68
2022/05/03 03:14:15;;;;;;;;;;;18.90;62.50;;;;;;5057902;28;1142;-68
2022/05/03 03:16:41;;;;;;;;;;;19.00;62.60;;;;;;5074075;28;1324;-68
2022/05/03 03:19:10;;;;;;;;;;;19.00;62.60;;;;;;5072561;28;1266;-68
2022/05/03 03:21:35;;;;;;;;;;;19.00;62.60;;;;;;5072592;28;1485;-68
2022/05/03 03:24:01;;;;;;;;;;;19.00;62.60;;;;;;5072595;28;1955;-68
2022/05/03 03:26:29;;;;;;;;;;;19.00;62.60;;;;;;5072683;28;1366;-68
2022/05/03 03:28:55;;;;;;;;;;;18.90;62.50;;;;;;5072470;28;1559;-68
2022/05/03 03:31:21;;;;;;;;;;;18.90;62.60;;;;;;5072397;28;1362;-67
2022/05/03 03:33:46;;;;;;;;;;;18.90;62.60;;;;;;5072499;28;1299;-68
2022/05/03 03:36:11;;;;;;;;;;;19.00;62.60;;;;;;5063038;28;1307;-68
2022/05/03 03:38:40;;;;;;;;;;;19.00;62.70;;;;;;5038017;28;1111;-67
2022/05/03 03:41:06;;;;;;;;;;;18.90;62.60;;;;;;5042009;28;2042;-67
2022/05/03 03:43:31;;;;;;;;;;;19.00;62.70;;;;;;5037225;28;2105;-68
2022/05/03 03:45:57;;;;;;;;;;;18.90;62.60;;;;;;5042237;28;1163;-67
2022/05/03 03:48:22;;;;;;;;;;;18.90;62.60;;;;;;5063302;28;1206;-68
2022/05/03 03:50:47;;;;;;;;;;;18.90;62.60;;;;;;5054313;28;1398;-68
2022/05/03 03:53:14;;;;;;;;;;;18.90;62.60;;;;;;5055821;28;1088;-67
2022/05/03 03:55:39;;;;;;;;;;;18.90;62.60;;;;;;5064653;28;1242;-66
2022/05/03 03:58:05;;;;;;;;;;;18.90;62.60;;;;;;5034330;28;1131;-65
2022/05/03 04:00:30;;;;;;;;;;;18.90;62.60;;;;;;5050886;28;1299;-66
2022/05/03 04:02:56;;;;;;;;;;;18.90;62.70;;;;;;5052342;28;1959;-63
2022/05/03 04:05:22;;;;;;;;;;;18.90;62.70;;;;;;5051859;28;1318;-65
2022/05/03 04:07:48;;;;;;;;;;;18.90;62.70;;;;;;5033275;28;1352;-66
2022/05/03 04:10:14;;;;;;;;;;;18.90;62.60;;;;;;5051969;28;1397;-67
2022/05/03 04:12:39;;;;;;;;;;;18.90;62.70;;;;;;5049034;28;1283;-67
2022/05/03 04:15:05;;;;;;;;;;;18.90;62.70;;;;;;5067698;28;1344;-65
2022/05/03 04:17:30;;;;;;;;;;;18.90;62.70;;;;;;5070618;28;1297;-65
2022/05/03 04:19:55;;;;;;;;;;;18.90;62.70;;;;;;5083110;28;1319;-66
2022/05/03 04:22:25;;;;;;;;;;;18.90;62.70;;;;;;5061576;28;1955;-65
2022/05/03 04:24:50;;;;;;;;;;;18.90;62.70;;;;;;5071725;28;1244;-67
2022/05/03 04:27:16;;;;;;;;;;;18.90;62.70;;;;;;5053803;28;1250;-65
2022/05/03 04:29:41;;;;;;;;;;;18.90;62.80;;;;;;5052063;28;1328;-64
2022/05/03 04:32:07;;;;;;;;;;;18.90;62.70;;;;;;5045331;28;1349;-64
2022/05/03 04:34:33;;;;;;;;;;;18.90;62.80;;;;;;5051696;28;1249;-64
2022/05/03 04:36:59;;;;;;;;;;;18.90;62.80;;;;;;5051082;28;1606;-67
2022/05/03 04:39:24;;;;;;;;;;;18.90;62.80;;;;;;5051927;28;1076;-65
2022/05/03 04:41:49;;;;;;;;;;;18.90;62.80;;;;;;5052471;28;1411;-67
2022/05/03 04:44:15;;;;;;;;;;;18.90;62.80;;;;;;5052900;28;1898;-66
2022/05/03 04:46:40;;;;;;;;;;;18.90;62.80;;;;;;5052621;28;1292;-67
2022/05/03 04:49:06;;;;;;;;;;;18.90;62.80;;;;;;5052257;28;1231;-67
2022/05/03 04:51:33;;;;;;;;;;;18.90;62.80;;;;;;5052594;28;1339;-68
2022/05/03 04:53:58;;;;;;;;;;;18.90;62.80;;;;;;5052916;28;1307;-70
2022/05/03 04:56:24;;;;;;;;;;;18.90;62.80;;;;;;5052682;28;1433;-69
2022/05/03 04:58:50;;;;;;;;;;;18.90;62.80;;;;;;5052503;28;1048;-70
2022/05/03 05:01:15;;;;;;;;;;;18.90;62.90;;;;;;5051289;28;1352;-70
2022/05/03 05:03:41;;;;;;;;;;;18.90;62.90;;;;;;5051101;28;1905;-71
2022/05/03 05:06:06;;;;;;;;;;;18.90;62.80;;;;;;5051400;28;1322;-71
2022/05/03 05:08:32;;;;;;;;;;;18.90;62.90;;;;;;5052208;28;1358;-71
2022/05/03 05:10:57;;;;;;;;;;;18.90;62.80;;;;;;5052595;28;1286;-71
2022/05/03 05:13:22;;;;;;;;;;;19.00;64.30;;;;;;5050773;28;1088;-71
2022/05/03 05:15:49;;;;;;;;;;;19.00;63.80;;;;;;5072444;28;1280;-71
2022/05/03 05:18:16;;;;;;;;;;;19.00;63.50;;;;;;5071979;28;1248;-71
2022/05/03 05:20:42;;;;;;;;;;;19.00;63.10;;;;;;5071184;28;1404;-66
2022/05/03 05:23:07;;;;;;;;;;;19.10;62.50;;;;;;5072284;28;1910;-67
2022/05/03 05:25:33;;;;;;;;;;;19.20;62.00;;;;;;5072568;28;1268;-66
2022/05/03 05:27:58;;;;;;;;;;;19.20;61.70;;;;;;5072135;28;1317;-67
2022/05/03 05:30:24;;;;;;;;;;;19.30;61.50;;;;;;5072239;28;1260;-68
2022/05/03 05:32:49;;;;;;;;;;;19.30;61.30;;;;;;5072091;28;1272;-68
2022/05/03 05:35:15;;;;;;;;;;;19.40;61.10;;;;;;5071125;28;1430;-68
2022/05/03 05:37:40;;;;;;;;;;;19.40;61.00;;;;;;5048740;28;1373;-68
2022/05/03 05:40:06;;;;;;;;;;;19.40;60.90;;;;;;5075897;28;1330;-68
2022/05/03 05:42:32;;;;;;;;;;;19.50;60.90;;;;;;5075987;28;1965;-68
2022/05/03 05:44:57;;;;;;;;;;;19.50;60.70;;;;;;5075942;28;1288;-68
2022/05/03 05:47:23;;;;;;;;;;;19.60;60.80;;;;;;5075241;28;1266;-67
2022/05/03 05:49:49;;;;;;;;;;;19.60;60.90;;;;;;5075756;28;1288;-69
2022/05/03 05:54:58;;;;;;;;;;;19.60;61.00;;;;;;5075740;28;1318;-68
2022/05/03 05:57:24;;;;;;;;;;;19.60;61.00;;;;;;5075209;28;1375;-66
2022/05/03 05:59:49;;;;;;;;;;;19.60;61.10;;;;;;5075468;28;1779;-66
2022/05/03 06:02:14;;;;;;;;;;;19.70;61.30;;;;;;5075250;28;1949;-67
2022/05/03 06:04:40;;;;;;;;;;;19.70;61.30;;;;;;5075514;28;1437;-67
2022/05/03 06:07:05;;;;;;;;;;;19.70;61.40;;;;;;5075056;28;1377;-68
2022/05/03 06:09:31;;;;;;;;;;;19.70;61.40;;;;;;5063022;28;1190;-67
2022/05/03 06:11:56;;;;;;;;;;;19.70;61.50;;;;;;5070498;28;1294;-67
2022/05/03 06:14:22;;;;;;;;;;;19.70;61.60;;;;;;5060328;28;1094;-68
2022/05/03 06:16:51;;;;;;;;;;;19.80;61.70;;;;;;5075104;28;1301;-68
2022/05/03 06:19:17;;;;;;;;;;;19.80;61.80;;;;;;5075001;28;1058;-67
2022/05/03 06:21:42;;;;;;;;;;;19.70;62.00;;;;;;5074947;28;1326;-67
2022/05/03 06:24:07;;;;;;;;;;;19.80;62.10;;;;;;5075058;28;1952;-67
2022/05/03 06:26:34;;;;;;;;;;;19.80;62.10;;;;;;5073844;28;1332;-67
2022/05/03 06:29:03;;;;;;;;;;;19.80;62.00;;;;;;5074534;28;1071;-70
2022/05/03 06:31:29;;;;;;;;;;;19.80;61.40;;;;;;5075052;28;1326;-69
2022/05/03 06:33:55;;;;;;;;;;;19.80;61.30;;;;;;5074899;28;1205;-69
2022/05/03 06:36:20;;;;;;;;;;;19.80;61.20;;;;;;5054630;28;1437;-67
2022/05/03 06:38:45;;;;;;;;;;;19.80;61.10;;;;;;5051963;28;1259;-67
2022/05/03 06:41:12;;;;;;;;;;;19.80;61.10;;;;;;5053552;28;1343;-67
2022/05/03 06:43:37;;;;;;;;;;;19.80;61.00;;;;;;5053644;28;1898;-68
2022/05/03 06:46:03;;;;;;;;;;;19.80;60.90;;;;;;5053731;28;1328;-67
2022/05/03 06:48:28;;;;;;;;;;;19.80;60.90;;;;;;5053470;28;1259;-65
2022/05/03 06:50:54;;;;;;;;;;;19.80;60.80;;;;;;5053622;28;1391;-66
2022/05/03 06:53:19;;;;;;;;;;;19.80;60.70;;;;;;5053995;28;1263;-65
2022/05/03 06:55:45;;;;;;;;;;;19.80;60.60;;;;;;5054326;28;1338;-66
2022/05/03 06:58:10;;;;;;;;;;;19.80;60.50;;;;;;5054146;28;1322;-66
2022/05/03 07:00:35;;;;;;;;;;;19.80;60.50;;;;;;5054815;28;1312;-66
2022/05/03 07:03:01;;;;;;;;;;;19.80;60.50;;;;;;5054360;28;1906;-66
2022/05/03 07:05:26;;;;;;;;;;;19.80;60.40;;;;;;5054337;28;1325;-66
2022/05/03 07:07:52;;;;;;;;;;;19.80;60.30;;;;;;5054205;28;1275;-67
2022/05/03 07:12:53;;;;;;;;;;;19.80;60.30;;;;;;5032735;28;1712;-70
2022/05/03 07:15:19;;;;;;;;;;;19.80;60.20;;;;;;5034672;28;1338;-69
2022/05/03 07:23:16;;;;;;;;;;;19.80;60.20;;;;;;5034089;28;1910;-69
2022/05/03 07:25:41;;;;;;;;;;;19.80;60.20;;;;;;5016459;28;1420;-69
2022/05/03 07:28:07;;;;;;;;;;;19.70;60.20;;;;;;5033897;28;1137;-71
2022/05/03 07:30:34;;;;;;;;;;;19.70;60.20;;;;;;5016235;28;1297;-71
2022/05/03 07:32:59;;;;;;;;;;;19.70;60.20;;;;;;5017107;28;1514;-70
2022/05/03 07:35:25;;;;;;;;;;;19.70;60.20;;;;;;5016554;28;1315;-69
2022/05/03 07:37:51;;;;;;;;;;;19.70;60.20;;;;;;5034460;28;1209;-69
2022/05/03 07:40:16;;;;;;;;;;;19.70;60.30;;;;;;5036117;28;1213;-72
2022/05/03 07:42:42;;;;;;;;;;;19.70;60.30;;;;;;5018510;28;1894;-72
2022/05/03 07:45:11;;;;;;;;;;;19.70;60.30;;;;;;5001513;28;1415;-71
2022/05/03 07:47:36;;;;;;;;;;;19.60;60.30;;;;;;4999882;28;1201;-71
2022/05/03 07:50:02;;;;;;;;;;;19.60;60.30;;;;;;5016400;28;1069;-72
2022/05/03 07:52:28;;;;;;;;;;;19.60;60.30;;;;;;5034148;28;1241;-71
2022/05/03 07:54:59;;;;;;;;;;;19.60;60.40;;;;;;5046757;28;1072;-71
2022/05/03 07:57:25;;;;;;;;;;;19.60;60.30;;;;;;5019033;28;1136;-72
2022/05/03 07:59:55;;;;;;;;;;;19.60;60.30;;;;;;5017241;28;1101;-71
2022/05/03 08:02:22;;;;;;;;;;;19.60;60.30;;;;;;5000763;28;1977;-71
2022/05/03 08:04:48;;;;;;;;;;;19.60;60.40;;;;;;5015704;28;1362;-70
2022/05/03 08:07:13;;;;;;;;;;;19.60;60.40;;;;;;5015255;28;1351;-71
2022/05/03 08:09:39;;;;;;;;;;;19.60;60.40;;;;;;5033159;28;1167;-71
2022/05/03 08:12:04;;;;;;;;;;;19.50;60.40;;;;;;5039377;28;1398;-71
2022/05/03 08:14:30;;;;;;;;;;;19.50;60.40;;;;;;5034439;28;1232;-71
2022/05/03 08:16:55;;;;;;;;;;;19.50;60.40;;;;;;5033127;28;894;-71
2022/05/03 08:19:22;;;;;;;;;;;19.50;60.40;;;;;;5031787;28;1084;-71
2022/05/03 08:21:47;;;;;;;;;;;19.50;60.50;;;;;;5032823;28;1215;-72
2022/05/03 08:24:12;;;;;;;;;;;19.50;60.50;;;;;;5033192;28;1902;-71
2022/05/03 08:26:38;;;;;;;;;;;19.50;60.50;;;;;;5026470;28;1143;-71
2022/05/03 08:29:03;;;;;;;;;;;19.50;60.60;;;;;;5039543;28;1320;-71
2022/05/03 08:31:29;;;;;;;;;;;19.50;60.60;;;;;;5034720;28;1372;-72
2022/05/03 08:33:54;;;;;;;;;;;19.40;60.60;;;;;;5052808;28;1315;-70
2022/05/03 08:36:20;;;;;;;;;;;19.40;60.50;;;;;;5042299;28;1504;-71
2022/05/03 08:44:13;;;;;;;;;;;19.50;61.70;;;;;;5032748;28;1894;-71
2022/05/03 08:46:38;;;;;;;;;;;19.50;61.40;;;;;;5032195;28;1155;-71
2022/05/03 08:49:04;;;;;;;;;;;19.50;61.40;;;;;;5014837;28;1406;-71
2022/05/03 08:51:30;;;;;;;;;;;19.50;61.40;;;;;;5014875;28;1545;-71
2022/05/03 08:53:56;;;;;;;;;;;19.40;61.40;;;;;;5014998;28;1285;-71
2022/05/03 08:56:21;;;;;;;;;;;19.40;61.30;;;;;;5032731;28;1151;-73
2022/05/03 08:58:47;;;;;;;;;;;19.40;61.30;;;;;;5030152;28;1064;-72
2022/05/03 09:01:12;;;;;;;;;;;19.40;61.30;;;;;;5020070;28;1277;-72
2022/05/03 09:03:39;;;;;;;;;;;19.40;61.30;;;;;;5048485;28;1902;-72
2022/05/03 09:06:04;;;;;;;;;;;19.40;61.30;;;;;;5014366;28;1300;-72
2022/05/03 09:08:31;;;;;;;;;;;19.40;61.30;;;;;;5014001;28;1389;-72
2022/05/03 09:10:56;;;;;;;;;;;19.40;61.30;;;;;;5032813;28;1469;-72
2022/05/03 09:13:23;;;;;;;;;;;19.40;61.30;;;;;;5018222;28;1633;-72
2022/05/03 09:15:55;;;;;;;;;;;19.40;61.30;;;;;;5036149;28;1325;-72
2022/05/03 09:18:21;;;;;;;;;;;19.40;61.30;;;;;;5018307;28;1377;-71
2022/05/03 09:23:49;;;;;;;;;;;19.30;61.20;;;;;;5023163;28;1972;-71
2022/05/03 09:26:15;;;;;;;;;;;19.30;61.20;;;;;;5035511;28;1258;-72
2022/05/03 09:28:58;;;;;;;;;;;19.30;61.20;;;;;;5035396;28;1068;-71
2022/05/03 09:31:36;;;;;;;;;;;19.30;61.30;;;;;;5016745;28;1354;-70
2022/05/03 09:34:02;;;;;;;;;;;19.30;61.50;;;;;;5029340;28;1261;-70
2022/05/03 09:36:28;;;;;;;;;;;19.30;61.30;;;;;;5044115;28;1548;-71
2022/05/03 09:38:54;;;;;;;;;;;19.30;61.20;;;;;;5034129;28;1076;-70
2022/05/03 09:41:19;;;;;;;;;;;19.30;61.20;;;;;;5017638;28;1217;-70
2022/05/03 09:44:03;;;;;;;;;;;19.30;61.20;;;;;;5035529;28;1953;-70
2022/05/03 09:46:29;;;;;;;;;;;19.20;61.20;;;;;;5035350;28;1120;-71
2022/05/03 09:48:55;;;;;;;;;;;19.30;61.30;;;;;;5028957;28;2020;-70
2022/05/03 09:51:21;;;;;;;;;;;19.30;61.40;;;;;;5023356;28;1609;-70
2022/05/03 09:53:56;;;;;;;;;;;19.20;61.40;;;;;;5032648;28;1115;-70
2022/05/03 09:56:23;;;;;;;;;;;19.20;61.50;;;;;;5037715;28;1293;-70
2022/05/03 09:58:49;;;;;;;;;;;19.20;61.50;;;;;;5036622;28;1634;-70
2022/05/03 10:01:14;;;;;;;;;;;19.20;61.50;;;;;;5033875;28;1284;-70
2022/05/03 10:03:39;;;;;;;;;;;19.20;61.50;;;;;;5033728;28;2018;-70
2022/05/03 10:06:05;;;;;;;;;;;19.30;61.50;;;;;;5035372;28;1267;-70
2022/05/03 10:08:30;;;;;;;;;;;19.30;61.50;;;;;;5039255;28;1429;-70
2022/05/03 10:10:56;;;;;;;;;;;19.30;61.50;;;;;;5034118;28;1384;-70
2022/05/03 10:13:21;;;;;;;;;;;19.20;61.50;;;;;;5017432;28;1183;-69
2022/05/03 10:21:19;;;;;;;;;;;19.20;61.50;;;;;;5038679;28;1228;-70
2022/05/03 10:24:00;;;;;;;;;;;19.20;61.50;;;;;;5034985;28;1910;-70
2022/05/03 10:26:28;;;;;;;;;;;19.20;61.50;;;;;;5051827;28;1320;-69
2022/05/03 10:29:00;;;;;;;;;;;19.20;61.60;;;;;;5039811;28;1139;-70
2022/05/03 10:31:25;;;;;;;;;;;19.20;61.40;;;;;;5034849;28;1359;-69
2022/05/03 10:33:51;;;;;;;;;;;19.20;61.40;;;;;;5017314;28;1060;-69
2022/05/03 10:36:35;;;;;;;;;;;19.20;61.50;;;;;;5034686;28;1374;-70
2022/05/03 10:39:03;;;;;;;;;;;19.20;61.40;;;;;;5035290;28;1211;-69
2022/05/03 10:41:29;;;;;;;;;;;19.20;61.50;;;;;;5054715;28;1364;-69
2022/05/03 10:43:54;;;;;;;;;;;19.10;61.40;;;;;;5022144;28;1907;-69
2022/05/03 10:46:20;;;;;;;;;;;19.20;61.50;;;;;;5016904;28;1321;-69
2022/05/03 10:49:05;;;;;;;;;;;19.10;61.40;;;;;;5015168;28;1828;-70
2022/05/03 10:51:30;;;;;;;;;;;19.20;61.50;;;;;;5016388;28;1268;-70
2022/05/03 10:53:59;;;;;;;;;;;19.10;61.30;;;;;;5038025;28;1306;-71
2022/05/03 10:56:24;;;;;;;;;;;19.20;61.40;;;;;;5016878;28;1364;-70
2022/05/03 10:59:10;;;;;;;;;;;19.20;61.40;;;;;;5034060;28;1319;-70
2022/05/03 11:02:06;;;;;;;;;;;19.10;61.30;;;;;;5034349;28;1249;-72
2022/05/03 11:04:32;;;;;;;;;;;19.20;61.40;;;;;;5022129;28;1509;-70
2022/05/03 11:06:57;;;;;;;;;;;19.20;61.50;;;;;;5032960;28;1179;-70
2022/05/03 11:09:26;;;;;;;;;;;19.20;61.50;;;;;;5016530;28;903;-71
2022/05/03 11:11:53;;;;;;;;;;;19.20;61.50;;;;;;5029031;28;1704;-68
2022/05/03 11:14:21;;;;;;;;;;;19.10;61.40;;;;;;5033705;28;1119;-69
2022/05/03 11:16:52;;;;;;;;;;;19.20;61.50;;;;;;5034235;28;1339;-71
2022/05/03 11:19:18;;;;;;;;;;;19.10;61.40;;;;;;5017194;28;1080;-69
2022/05/03 11:21:47;;;;;;;;;;;19.10;61.50;;;;;;5033916;28;1309;-70
2022/05/03 11:24:19;;;;;;;;;;;19.10;61.50;;;;;;5033931;28;1887;-70
2022/05/03 11:26:44;;;;;;;;;;;19.10;61.50;;;;;;5016313;28;1348;-69
2022/05/03 11:29:11;;;;;;;;;;;19.10;61.50;;;;;;5015575;28;1061;-72
2022/05/03 11:31:36;;;;;;;;;;;19.10;61.50;;;;;;5040748;28;1584;-73
2022/05/03 11:34:03;;;;;;;;;;;19.10;61.50;;;;;;5053093;28;1261;-73
2022/05/03 11:36:29;;;;;;;;;;;19.10;61.60;;;;;;5016546;28;1673;-72
2022/05/03 11:38:54;;;;;;;;;;;19.10;61.50;;;;;;5016475;28;2450;-72
2022/05/03 11:41:23;;;;;;;;;;;19.10;61.50;;;;;;5033970;28;1395;-72
2022/05/03 11:43:48;;;;;;;;;;;19.10;61.50;;;;;;5033241;28;1977;-72
2022/05/03 11:46:17;;;;;;;;;;;19.10;61.50;;;;;;5015990;28;1085;-72
2022/05/03 11:48:43;;;;;;;;;;;19.10;61.50;;;;;;5046049;28;1293;-72
2022/05/03 11:56:37;;;;;;;;;;;19.10;61.60;;;;;;5048917;28;2220;-72
2022/05/03 11:59:03;;;;;;;;;;;19.10;61.50;;;;;;5032299;28;1378;-72
2022/05/03 12:01:31;;;;;;;;;;;19.10;61.60;;;;;;5031406;28;1327;-71
2022/05/03 12:03:58;;;;;;;;;;;19.10;61.60;;;;;;5031510;28;1979;-72
2022/05/03 12:06:24;;;;;;;;;;;19.10;61.50;;;;;;5032762;28;1221;-72
2022/05/03 12:08:51;;;;;;;;;;;19.10;61.60;;;;;;5031295;28;1459;-72
2022/05/03 12:11:21;;;;;;;;;;;19.10;61.60;;;;;;5031858;28;1366;-72
2022/05/03 12:13:46;;;;;;;;;;;19.10;61.50;;;;;;5014345;28;2060;-71
2022/05/03 12:16:15;;;;;;;;;;;19.10;61.60;;;;;;5032363;28;1443;-69
2022/05/03 12:18:42;;;;;;;;;;;19.10;61.60;;;;;;5032914;28;1272;-71
2022/05/03 12:21:11;;;;;;;;;;;19.10;61.50;;;;;;5031000;28;1313;-71
2022/05/03 12:23:49;;;;;;;;;;;19.10;61.40;;;;;;5014258;28;1922;-71
2022/05/03 12:26:18;;;;;;;;;;;19.10;61.40;;;;;;5028647;28;1249;-71
2022/05/03 12:28:46;;;;;;;;;;;19.00;61.10;;;;;;5032041;28;1169;-70
2022/05/03 12:31:12;;;;;;;;;;;19.10;60.90;;;;;;5033770;28;1357;-70
2022/05/03 12:33:41;;;;;;;;;;;19.10;61.00;;;;;;5032756;28;1224;-71
2022/05/03 12:36:08;;;;;;;;;;;19.10;60.90;;;;;;5033320;28;1421;-71
2022/05/03 12:38:33;;;;;;;;;;;19.00;60.80;;;;;;5031013;28;1279;-70
2022/05/03 12:40:59;;;;;;;;;;;19.00;60.80;;;;;;5030355;28;2068;-72
2022/05/03 12:43:26;;;;;;;;;;;19.00;60.80;;;;;;5028068;28;2139;-72
2022/05/03 12:46:04;;;;;;;;;;;19.00;60.80;;;;;;5035343;28;2201;-72
2022/05/03 12:48:31;;;;;;;;;;;19.00;60.80;;;;;;5035169;28;1353;-71
2022/05/03 12:50:57;;;;;;;;;;;19.00;60.80;;;;;;5042418;28;2131;-71
2022/05/03 12:53:23;;;;;;;;;;;19.00;60.70;;;;;;5029517;28;1092;-71
2022/05/03 12:55:49;;;;;;;;;;;19.00;60.40;;;;;;5039413;28;1248;-72
2022/05/03 12:58:24;;;;;;;;;;;19.00;60.00;;;;;;5038740;28;1261;-71
2022/05/03 13:00:54;;;;;;;;;;;19.00;60.00;;;;;;5034971;28;1314;-71
2022/05/03 13:03:20;;;;;;;;;;;19.10;60.40;;;;;;5048388;28;1902;-70
2022/05/03 13:05:45;;;;;;;;;;;19.10;60.70;;;;;;5041393;28;1205;-70
2022/05/03 13:08:11;;;;;;;;;;;19.10;60.70;;;;;;5039573;28;1372;-70
2022/05/03 13:10:37;;;;;;;;;;;19.10;60.40;;;;;;5065168;22;1992;-68
2022/05/03 13:13:03;;;;;;;;;;;19.10;60.30;;;;;;5090882;28;1713;-71
2022/05/03 13:15:28;;;;;;;;;;;19.10;60.10;;;;;;5097651;28;1087;-71
2022/05/03 13:17:53;;;;;;;;;;;19.10;60.10;;;;;;5091245;28;1276;-71
2022/05/03 13:20:20;;;;;;;;;;;19.10;59.40;;;;;;5098713;28;1309;-72
2022/05/03 13:22:45;;;;;;;;;;;19.20;58.00;;;;;;5098618;28;1989;-71
2022/05/03 13:25:11;;;;;;;;;;;19.20;56.60;;;;;;5099070;28;1257;-72
2022/05/03 13:27:36;;;;;;;;;;;19.20;55.90;;;;;;5096577;28;1512;-72
2022/05/03 13:30:02;;;;;;;;;;;19.20;55.40;;;;;;5097304;28;1324;-70
2022/05/03 13:32:28;;;;;;;;;;;19.20;54.80;;;;;;5098220;28;1353;-72
2022/05/03 13:34:54;;;;;;;;;;;19.20;54.10;;;;;;5098682;28;1335;-71
2022/05/03 13:42:47;;;;;;;;;;;19.20;53.10;;;;;;5092632;28;1898;-72
2022/05/03 13:45:13;;;;;;;;;;;19.20;53.50;;;;;;5081157;28;1149;-71
2022/05/03 13:47:38;;;;;;;;;;;19.20;53.70;;;;;;5077782;28;1365;-71
2022/05/03 13:50:04;;;;;;;;;;;19.20;54.30;;;;;;5078122;28;1266;-71
2022/05/03 13:52:33;;;;;;;;;;;19.20;53.60;;;;;;5078124;28;1399;-72
2022/05/03 13:54:59;;;;;;;;;;;19.20;53.70;;;;;;5078367;28;1257;-71
2022/05/03 13:57:25;;;;;;;;;;;19.10;53.10;;;;;;5074078;28;1317;-70
2022/05/03 13:59:50;;;;;;;;;;;19.20;52.80;;;;;;5075320;28;1291;-71
2022/05/03 14:02:15;;;;;;;;;;;19.10;52.60;;;;;;5075104;28;1960;-70
2022/05/03 14:04:41;;;;;;;;;;;19.10;53.00;;;;;;5074869;28;1345;-71
2022/05/03 14:07:08;;;;;;;;;;;19.10;53.00;;;;;;5074440;28;1313;-71
2022/05/03 14:09:33;;;;;;;;;;;19.10;53.50;;;;;;5074903;28;1325;-71
2022/05/03 14:11:59;;;;;;;;;;;19.10;53.20;;;;;;5074229;28;1442;-72
2022/05/03 14:14:24;;;;;;;;;;;19.10;53.30;;;;;;5080157;28;1364;-71
2022/05/03 14:16:50;;;;;;;;;;;19.10;53.00;;;;;;5095008;28;1453;-71
2022/05/03 14:19:16;;;;;;;;;;;19.10;51.80;;;;;;5094911;28;1260;-71
2022/05/03 14:21:42;;;;;;;;;;;19.00;51.80;;;;;;5095162;28;1358;-71
2022/05/03 14:24:07;;;;;;;;;;;19.10;52.00;;;;;;5094181;28;1897;-71
2022/05/03 14:26:33;;;;;;;;;;;19.10;51.80;;;;;;5095051;28;1306;-71
2022/05/03 14:28:59;;;;;;;;;;;19.10;51.60;;;;;;5087148;28;1276;-69
2022/05/03 14:31:25;;;;;;;;;;;19.00;51.60;;;;;;5067026;28;1373;-68
2022/05/03 14:33:51;;;;;;;;;;;19.10;50.10;;;;;;5064879;28;1241;-68
2022/05/03 14:36:17;;;;;;;;;;;19.00;50.30;;;;;;5067225;28;1346;-69
2022/05/03 14:38:42;;;;;;;;;;;19.00;50.20;;;;;;5067164;28;1397;-69
2022/05/03 14:41:08;;;;;;;;;;;19.00;50.00;;;;;;5069348;28;1331;-69
2022/05/03 14:43:33;;;;;;;;;;;19.00;50.70;;;;;;5064164;28;1902;-69
2022/05/03 14:45:58;;;;;;;;;;;19.00;49.40;;;;;;5064285;28;1237;-66
2022/05/03 14:48:24;;;;;;;;;;;19.00;50.20;;;;;;5074097;28;1269;-67
2022/05/03 14:50:49;;;;;;;;;;;19.00;50.50;;;;;;5073541;28;1341;-66
2022/05/03 14:53:15;;;;;;;;;;;18.90;50.90;;;;;;5073952;28;1336;-68
2022/05/03 15:02:51;;;;;;;;;;;19.00;52.00;;;;;;5074311;28;1304;-67
2022/05/03 15:03:55;;;;;;;;;;;18.90;52.40;;;;;;5072751;28;1955;-67
2022/05/03 15:06:21;;;;;;;;;;;18.90;52.80;;;;;;5074041;28;1250;-66
2022/05/03 15:08:46;;;;;;;;;;;18.90;53.10;;;;;;5072038;28;1373;-67
2022/05/03 15:11:11;;;;;;;;;;;18.90;53.40;;;;;;5073455;28;1292;-66
2022/05/03 15:13:37;;;;;;;;;;;18.90;53.70;;;;;;5073914;28;1346;-67
2022/05/03 15:16:04;;;;;;;;;;;18.90;54.00;;;;;;5093770;28;1363;-67
2022/05/03 15:18:30;;;;;;;;;;;18.90;54.10;;;;;;5074321;28;1577;-66
2022/05/03 15:20:56;;;;;;;;;;;18.90;54.30;;;;;;5090498;28;1355;-67